sensor_id;sensor_type;location;lat;lon;timestamp;P1;durP1;ratioP1;P2;durP2;ratioP2
71959;SDS011;59832;51.146;14.024;2022-10-22T00:00:54;39.97;;;20.90;;
71959;SDS011;59832;51.146;14.024;2022-10-22T00:03:21;38.77;;;21.87;;
71959;SDS011;59832;51.146;14.024;2022-10-22T00:05:47;37.13;;;21.23;;
71959;SDS011;59832;51.146;14.024;2022-10-22T00:08:13;51.00;;;24.30;;
71959;SDS011;59832;51.146;14.024;2022-10-22T00:10:40;39.33;;;22.17;;
71959;SDS011;59832;51.146;14.024;2022-10-22T00:13:07;42.55;;;22.13;;
71959;SDS011;59832;51.146;14.024;2022-10-22T00:15:33;41.90;;;22.98;;
71959;SDS011;59832;51.146;14.024;2022-10-22T00:17:59;43.05;;;22.92;;
71959;SDS011;59832;51.146;14.024;2022-10-22T00:20:26;46.05;;;24.10;;
71959;SDS011;59832;51.146;14.024;2022-10-22T00:22:52;44.83;;;23.98;;
71959;SDS011;59832;51.146;14.024;2022-10-22T00:25:19;44.58;;;23.70;;
71959;SDS011;59832;51.146;14.024;2022-10-22T00:27:45;45.42;;;24.38;;
71959;SDS011;59832;51.146;14.024;2022-10-22T00:30:12;42.97;;;24.40;;
71959;SDS011;59832;51.146;14.024;2022-10-22T00:32:38;45.75;;;23.85;;
71959;SDS011;59832;51.146;14.024;2022-10-22T00:35:05;43.95;;;23.27;;
71959;SDS011;59832;51.146;14.024;2022-10-22T00:37:32;47.70;;;24.10;;
71959;SDS011;59832;51.146;14.024;2022-10-22T00:39:59;44.72;;;23.85;;
71959;SDS011;59832;51.146;14.024;2022-10-22T00:42:26;41.92;;;23.20;;
71959;SDS011;59832;51.146;14.024;2022-10-22T00:50:33;43.95;;;23.27;;
71959;SDS011;59832;51.146;14.024;2022-10-22T00:53:03;42.72;;;23.65;;
71959;SDS011;59832;51.146;14.024;2022-10-22T00:55:33;46.38;;;23.80;;
71959;SDS011;59832;51.146;14.024;2022-10-22T00:58:00;46.80;;;24.52;;
71959;SDS011;59832;51.146;14.024;2022-10-22T01:00:27;52.80;;;24.80;;
71959;SDS011;59832;51.146;14.024;2022-10-22T01:02:54;48.57;;;24.33;;
71959;SDS011;59832;51.146;14.024;2022-10-22T01:05:20;44.25;;;23.65;;
71959;SDS011;59832;51.146;14.024;2022-10-22T01:07:49;41.60;;;23.38;;
71959;SDS011;59832;51.146;14.024;2022-10-22T01:10:19;44.65;;;24.90;;
71959;SDS011;59832;51.146;14.024;2022-10-22T01:15:54;44.35;;;23.65;;
71959;SDS011;59832;51.146;14.024;2022-10-22T01:21:17;43.53;;;22.98;;
71959;SDS011;59832;51.146;14.024;2022-10-22T01:24:03;42.47;;;22.80;;
71959;SDS011;59832;51.146;14.024;2022-10-22T01:26:36;43.35;;;23.55;;
71959;SDS011;59832;51.146;14.024;2022-10-22T01:29:47;45.75;;;24.23;;
71959;SDS011;59832;51.146;14.024;2022-10-22T01:32:19;39.42;;;22.38;;
71959;SDS011;59832;51.146;14.024;2022-10-22T01:34:49;44.35;;;23.13;;
71959;SDS011;59832;51.146;14.024;2022-10-22T01:37:20;45.92;;;22.70;;
71959;SDS011;59832;51.146;14.024;2022-10-22T01:39:49;41.10;;;22.77;;
71959;SDS011;59832;51.146;14.024;2022-10-22T01:42:16;42.78;;;22.42;;
71959;SDS011;59832;51.146;14.024;2022-10-22T01:44:43;42.45;;;23.23;;
71959;SDS011;59832;51.146;14.024;2022-10-22T01:47:14;38.13;;;21.43;;
71959;SDS011;59832;51.146;14.024;2022-10-22T01:52:48;40.97;;;22.35;;
71959;SDS011;59832;51.146;14.024;2022-10-22T01:55:30;43.85;;;22.50;;
71959;SDS011;59832;51.146;14.024;2022-10-22T01:58:02;46.03;;;23.27;;
71959;SDS011;59832;51.146;14.024;2022-10-22T02:00:44;42.33;;;23.42;;
71959;SDS011;59832;51.146;14.024;2022-10-22T02:03:28;48.55;;;24.30;;
71959;SDS011;59832;51.146;14.024;2022-10-22T02:06:02;51.03;;;24.45;;
71959;SDS011;59832;51.146;14.024;2022-10-22T02:08:34;44.42;;;22.95;;
71959;SDS011;59832;51.146;14.024;2022-10-22T02:11:02;41.95;;;22.70;;
71959;SDS011;59832;51.146;14.024;2022-10-22T02:13:32;42.20;;;23.02;;
71959;SDS011;59832;51.146;14.024;2022-10-22T02:16:07;46.85;;;24.92;;
71959;SDS011;59832;51.146;14.024;2022-10-22T02:18:37;46.28;;;23.88;;
71959;SDS011;59832;51.146;14.024;2022-10-22T02:21:08;43.80;;;22.23;;
71959;SDS011;59832;51.146;14.024;2022-10-22T02:23:34;47.92;;;23.80;;
71959;SDS011;59832;51.146;14.024;2022-10-22T02:31:32;40.92;;;21.88;;
71959;SDS011;59832;51.146;14.024;2022-10-22T02:34:04;41.25;;;23.40;;
71959;SDS011;59832;51.146;14.024;2022-10-22T02:36:36;44.67;;;22.63;;
71959;SDS011;59832;51.146;14.024;2022-10-22T02:39:03;45.40;;;23.42;;
71959;SDS011;59832;51.146;14.024;2022-10-22T02:41:33;41.17;;;22.02;;
71959;SDS011;59832;51.146;14.024;2022-10-22T02:44:00;47.50;;;24.05;;
71959;SDS011;59832;51.146;14.024;2022-10-22T02:46:28;40.38;;;22.13;;
71959;SDS011;59832;51.146;14.024;2022-10-22T02:48:54;43.25;;;23.45;;
71959;SDS011;59832;51.146;14.024;2022-10-22T02:51:20;41.25;;;22.50;;
71959;SDS011;59832;51.146;14.024;2022-10-22T02:53:47;34.92;;;20.75;;
71959;SDS011;59832;51.146;14.024;2022-10-22T02:56:13;44.08;;;22.70;;
71959;SDS011;59832;51.146;14.024;2022-10-22T02:58:40;41.35;;;21.50;;
71959;SDS011;59832;51.146;14.024;2022-10-22T03:01:06;43.67;;;22.77;;
71959;SDS011;59832;51.146;14.024;2022-10-22T03:03:37;49.33;;;23.95;;
71959;SDS011;59832;51.146;14.024;2022-10-22T03:06:03;48.47;;;24.58;;
71959;SDS011;59832;51.146;14.024;2022-10-22T03:08:30;45.25;;;23.70;;
71959;SDS011;59832;51.146;14.024;2022-10-22T03:10:57;49.53;;;23.83;;
71959;SDS011;59832;51.146;14.024;2022-10-22T03:13:23;50.55;;;23.95;;
71959;SDS011;59832;51.146;14.024;2022-10-22T03:15:49;44.80;;;23.23;;
71959;SDS011;59832;51.146;14.024;2022-10-22T03:18:16;46.37;;;24.90;;
71959;SDS011;59832;51.146;14.024;2022-10-22T03:20:43;43.35;;;22.80;;
71959;SDS011;59832;51.146;14.024;2022-10-22T03:23:10;47.42;;;24.05;;
71959;SDS011;59832;51.146;14.024;2022-10-22T03:25:39;46.75;;;23.48;;
71959;SDS011;59832;51.146;14.024;2022-10-22T03:28:08;44.47;;;23.33;;
71959;SDS011;59832;51.146;14.024;2022-10-22T03:30:38;47.15;;;23.75;;
71959;SDS011;59832;51.146;14.024;2022-10-22T03:33:04;50.60;;;23.70;;
71959;SDS011;59832;51.146;14.024;2022-10-22T03:35:31;43.38;;;22.45;;
71959;SDS011;59832;51.146;14.024;2022-10-22T03:38:00;45.45;;;23.08;;
71959;SDS011;59832;51.146;14.024;2022-10-22T03:40:27;50.13;;;24.77;;
71959;SDS011;59832;51.146;14.024;2022-10-22T03:42:54;47.17;;;23.25;;
71959;SDS011;59832;51.146;14.024;2022-10-22T03:45:20;43.55;;;21.92;;
71959;SDS011;59832;51.146;14.024;2022-10-22T03:47:47;40.85;;;22.15;;
71959;SDS011;59832;51.146;14.024;2022-10-22T03:50:13;43.78;;;23.80;;
71959;SDS011;59832;51.146;14.024;2022-10-22T03:52:39;42.58;;;23.05;;
71959;SDS011;59832;51.146;14.024;2022-10-22T03:55:06;41.65;;;23.02;;
71959;SDS011;59832;51.146;14.024;2022-10-22T03:57:33;42.65;;;22.13;;
71959;SDS011;59832;51.146;14.024;2022-10-22T04:00:00;42.25;;;22.25;;
71959;SDS011;59832;51.146;14.024;2022-10-22T04:02:27;38.53;;;22.30;;
71959;SDS011;59832;51.146;14.024;2022-10-22T04:04:53;38.90;;;22.38;;
71959;SDS011;59832;51.146;14.024;2022-10-22T04:07:20;42.63;;;22.27;;
71959;SDS011;59832;51.146;14.024;2022-10-22T04:09:46;39.10;;;22.58;;
71959;SDS011;59832;51.146;14.024;2022-10-22T04:12:12;35.45;;;20.95;;
71959;SDS011;59832;51.146;14.024;2022-10-22T04:14:39;37.47;;;20.73;;
71959;SDS011;59832;51.146;14.024;2022-10-22T04:17:05;39.35;;;21.08;;
71959;SDS011;59832;51.146;14.024;2022-10-22T04:19:32;41.28;;;21.48;;
71959;SDS011;59832;51.146;14.024;2022-10-22T04:21:58;39.53;;;21.40;;
71959;SDS011;59832;51.146;14.024;2022-10-22T04:24:25;38.67;;;21.60;;
71959;SDS011;59832;51.146;14.024;2022-10-22T04:26:54;44.15;;;21.63;;
71959;SDS011;59832;51.146;14.024;2022-10-22T04:29:21;36.95;;;20.52;;
71959;SDS011;59832;51.146;14.024;2022-10-22T04:31:48;37.38;;;20.38;;
71959;SDS011;59832;51.146;14.024;2022-10-22T04:34:15;38.88;;;21.45;;
71959;SDS011;59832;51.146;14.024;2022-10-22T04:36:41;37.03;;;20.48;;
71959;SDS011;59832;51.146;14.024;2022-10-22T04:39:07;35.65;;;20.15;;
71959;SDS011;59832;51.146;14.024;2022-10-22T04:41:36;38.28;;;20.80;;
71959;SDS011;59832;51.146;14.024;2022-10-22T04:44:04;35.08;;;20.27;;
71959;SDS011;59832;51.146;14.024;2022-10-22T04:46:32;37.60;;;19.95;;
71959;SDS011;59832;51.146;14.024;2022-10-22T04:48:59;37.95;;;20.08;;
71959;SDS011;59832;51.146;14.024;2022-10-22T04:51:28;40.47;;;20.90;;
71959;SDS011;59832;51.146;14.024;2022-10-22T04:53:55;36.17;;;20.08;;
71959;SDS011;59832;51.146;14.024;2022-10-22T04:56:22;38.88;;;22.10;;
71959;SDS011;59832;51.146;14.024;2022-10-22T04:58:54;39.70;;;20.92;;
71959;SDS011;59832;51.146;14.024;2022-10-22T05:01:26;35.65;;;19.95;;
71959;SDS011;59832;51.146;14.024;2022-10-22T05:03:54;38.80;;;22.15;;
71959;SDS011;59832;51.146;14.024;2022-10-22T05:06:22;36.50;;;20.98;;
71959;SDS011;59832;51.146;14.024;2022-10-22T05:11:28;42.75;;;23.08;;
71959;SDS011;59832;51.146;14.024;2022-10-22T05:13:59;39.85;;;20.70;;
71959;SDS011;59832;51.146;14.024;2022-10-22T05:16:27;47.95;;;25.33;;
71959;SDS011;59832;51.146;14.024;2022-10-22T05:18:56;39.65;;;22.05;;
71959;SDS011;59832;51.146;14.024;2022-10-22T05:21:23;42.28;;;22.58;;
71959;SDS011;59832;51.146;14.024;2022-10-22T05:23:50;41.78;;;22.52;;
71959;SDS011;59832;51.146;14.024;2022-10-22T05:26:20;36.33;;;20.90;;
71959;SDS011;59832;51.146;14.024;2022-10-22T05:33:41;42.35;;;20.98;;
71959;SDS011;59832;51.146;14.024;2022-10-22T05:36:10;36.75;;;20.85;;
71959;SDS011;59832;51.146;14.024;2022-10-22T05:38:39;39.80;;;20.35;;
71959;SDS011;59832;51.146;14.024;2022-10-22T05:41:09;36.33;;;20.23;;
71959;SDS011;59832;51.146;14.024;2022-10-22T05:43:37;37.17;;;19.45;;
71959;SDS011;59832;51.146;14.024;2022-10-22T05:46:09;38.10;;;19.52;;
71959;SDS011;59832;51.146;14.024;2022-10-22T05:48:37;34.28;;;19.33;;
71959;SDS011;59832;51.146;14.024;2022-10-22T05:51:05;36.30;;;19.40;;
71959;SDS011;59832;51.146;14.024;2022-10-22T05:53:40;32.88;;;18.45;;
71959;SDS011;59832;51.146;14.024;2022-10-22T05:56:09;37.42;;;19.27;;
71959;SDS011;59832;51.146;14.024;2022-10-22T05:58:38;33.83;;;17.17;;
71959;SDS011;59832;51.146;14.024;2022-10-22T06:01:06;35.73;;;18.33;;
71959;SDS011;59832;51.146;14.024;2022-10-22T06:03:34;34.80;;;19.15;;
71959;SDS011;59832;51.146;14.024;2022-10-22T06:06:01;31.23;;;18.75;;
71959;SDS011;59832;51.146;14.024;2022-10-22T06:08:30;33.88;;;18.48;;
71959;SDS011;59832;51.146;14.024;2022-10-22T06:10:56;28.73;;;16.67;;
71959;SDS011;59832;51.146;14.024;2022-10-22T06:13:23;34.38;;;19.33;;
71959;SDS011;59832;51.146;14.024;2022-10-22T06:15:49;32.03;;;17.73;;
71959;SDS011;59832;51.146;14.024;2022-10-22T06:18:18;32.80;;;18.10;;
71959;SDS011;59832;51.146;14.024;2022-10-22T06:20:45;33.20;;;17.58;;
71959;SDS011;59832;51.146;14.024;2022-10-22T06:23:12;39.75;;;20.08;;
71959;SDS011;59832;51.146;14.024;2022-10-22T06:25:40;31.55;;;18.77;;
71959;SDS011;59832;51.146;14.024;2022-10-22T06:28:07;33.58;;;17.80;;
71959;SDS011;59832;51.146;14.024;2022-10-22T06:30:35;34.33;;;19.17;;
71959;SDS011;59832;51.146;14.024;2022-10-22T06:33:09;34.03;;;18.70;;
71959;SDS011;59832;51.146;14.024;2022-10-22T06:35:35;28.45;;;17.00;;
71959;SDS011;59832;51.146;14.024;2022-10-22T06:38:02;32.70;;;17.70;;
71959;SDS011;59832;51.146;14.024;2022-10-22T06:40:29;28.58;;;16.98;;
71959;SDS011;59832;51.146;14.024;2022-10-22T06:42:57;31.90;;;17.35;;
71959;SDS011;59832;51.146;14.024;2022-10-22T06:45:24;28.92;;;16.88;;
71959;SDS011;59832;51.146;14.024;2022-10-22T06:47:51;32.97;;;18.60;;
71959;SDS011;59832;51.146;14.024;2022-10-22T06:50:17;32.53;;;17.38;;
71959;SDS011;59832;51.146;14.024;2022-10-22T06:52:44;34.00;;;18.27;;
71959;SDS011;59832;51.146;14.024;2022-10-22T06:55:10;31.45;;;18.67;;
71959;SDS011;59832;51.146;14.024;2022-10-22T06:57:37;34.15;;;18.98;;
71959;SDS011;59832;51.146;14.024;2022-10-22T07:00:04;31.30;;;17.17;;
71959;SDS011;59832;51.146;14.024;2022-10-22T07:02:32;33.17;;;18.08;;
71959;SDS011;59832;51.146;14.024;2022-10-22T07:04:58;32.17;;;17.08;;
71959;SDS011;59832;51.146;14.024;2022-10-22T07:07:25;33.25;;;18.13;;
71959;SDS011;59832;51.146;14.024;2022-10-22T07:09:51;31.13;;;17.47;;
71959;SDS011;59832;51.146;14.024;2022-10-22T07:12:18;33.50;;;17.88;;
71959;SDS011;59832;51.146;14.024;2022-10-22T07:14:44;31.38;;;17.73;;
71959;SDS011;59832;51.146;14.024;2022-10-22T07:17:10;30.17;;;16.98;;
71959;SDS011;59832;51.146;14.024;2022-10-22T07:19:37;34.38;;;17.77;;
71959;SDS011;59832;51.146;14.024;2022-10-22T07:22:03;27.95;;;17.05;;
71959;SDS011;59832;51.146;14.024;2022-10-22T07:24:30;33.13;;;17.02;;
71959;SDS011;59832;51.146;14.024;2022-10-22T07:26:56;34.78;;;18.17;;
71959;SDS011;59832;51.146;14.024;2022-10-22T07:29:23;32.03;;;18.02;;
71959;SDS011;59832;51.146;14.024;2022-10-22T07:31:50;30.75;;;16.75;;
71959;SDS011;59832;51.146;14.024;2022-10-22T07:34:16;32.47;;;18.13;;
71959;SDS011;59832;51.146;14.024;2022-10-22T07:36:42;30.77;;;16.77;;
71959;SDS011;59832;51.146;14.024;2022-10-22T07:39:09;28.17;;;17.00;;
71959;SDS011;59832;51.146;14.024;2022-10-22T07:41:35;32.38;;;17.40;;
71959;SDS011;59832;51.146;14.024;2022-10-22T07:44:02;31.90;;;16.85;;
71959;SDS011;59832;51.146;14.024;2022-10-22T07:46:28;27.50;;;16.93;;
71959;SDS011;59832;51.146;14.024;2022-10-22T07:48:55;26.40;;;16.40;;
71959;SDS011;59832;51.146;14.024;2022-10-22T07:51:21;31.13;;;16.30;;
71959;SDS011;59832;51.146;14.024;2022-10-22T07:53:48;27.90;;;16.40;;
71959;SDS011;59832;51.146;14.024;2022-10-22T07:56:14;30.08;;;17.15;;
71959;SDS011;59832;51.146;14.024;2022-10-22T07:58:41;30.92;;;16.23;;
71959;SDS011;59832;51.146;14.024;2022-10-22T08:01:07;26.92;;;16.92;;
71959;SDS011;59832;51.146;14.024;2022-10-22T08:03:34;24.60;;;15.17;;
71959;SDS011;59832;51.146;14.024;2022-10-22T08:06:00;24.45;;;15.25;;
71959;SDS011;59832;51.146;14.024;2022-10-22T08:08:27;26.20;;;15.93;;
71959;SDS011;59832;51.146;14.024;2022-10-22T08:10:56;28.70;;;16.38;;
71959;SDS011;59832;51.146;14.024;2022-10-22T08:13:25;24.90;;;15.55;;
71959;SDS011;59832;51.146;14.024;2022-10-22T08:18:22;26.15;;;13.68;;
71959;SDS011;59832;51.146;14.024;2022-10-22T08:20:49;21.57;;;13.57;;
71959;SDS011;59832;51.146;14.024;2022-10-22T08:23:16;23.23;;;13.77;;
71959;SDS011;59832;51.146;14.024;2022-10-22T08:25:43;22.38;;;14.27;;
71959;SDS011;59832;51.146;14.024;2022-10-22T08:28:09;22.33;;;14.35;;
71959;SDS011;59832;51.146;14.024;2022-10-22T08:30:36;22.50;;;14.73;;
71959;SDS011;59832;51.146;14.024;2022-10-22T08:33:04;24.58;;;14.07;;
71959;SDS011;59832;51.146;14.024;2022-10-22T08:35:31;26.08;;;15.05;;
71959;SDS011;59832;51.146;14.024;2022-10-22T08:37:57;22.83;;;13.97;;
71959;SDS011;59832;51.146;14.024;2022-10-22T08:40:33;22.85;;;14.48;;
71959;SDS011;59832;51.146;14.024;2022-10-22T08:48:45;19.55;;;13.18;;
71959;SDS011;59832;51.146;14.024;2022-10-22T08:51:16;19.13;;;12.55;;
71959;SDS011;59832;51.146;14.024;2022-10-22T08:53:51;18.75;;;13.30;;
71959;SDS011;59832;51.146;14.024;2022-10-22T08:56:22;22.50;;;14.30;;
71959;SDS011;59832;51.146;14.024;2022-10-22T08:58:56;17.45;;;11.55;;
71959;SDS011;59832;51.146;14.024;2022-10-22T09:07:10;18.13;;;11.45;;
71959;SDS011;59832;51.146;14.024;2022-10-22T09:09:38;20.42;;;11.65;;
71959;SDS011;59832;51.146;14.024;2022-10-22T09:12:13;17.52;;;11.45;;
71959;SDS011;59832;51.146;14.024;2022-10-22T09:14:45;15.80;;;10.60;;
71959;SDS011;59832;51.146;14.024;2022-10-22T09:17:13;13.45;;;9.48;;
71959;SDS011;59832;51.146;14.024;2022-10-22T09:22:51;15.25;;;9.70;;
71959;SDS011;59832;51.146;14.024;2022-10-22T09:25:27;16.13;;;10.13;;
71959;SDS011;59832;51.146;14.024;2022-10-22T09:27:55;13.40;;;9.70;;
71959;SDS011;59832;51.146;14.024;2022-10-22T09:30:26;16.38;;;9.55;;
71959;SDS011;59832;51.146;14.024;2022-10-22T09:32:58;11.68;;;9.10;;
71959;SDS011;59832;51.146;14.024;2022-10-22T09:35:47;11.20;;;8.75;;
71959;SDS011;59832;51.146;14.024;2022-10-22T09:38:25;13.35;;;9.25;;
71959;SDS011;59832;51.146;14.024;2022-10-22T09:40:54;10.88;;;8.68;;
71959;SDS011;59832;51.146;14.024;2022-10-22T09:43:22;10.93;;;8.43;;
71959;SDS011;59832;51.146;14.024;2022-10-22T09:45:59;13.15;;;9.40;;
71959;SDS011;59832;51.146;14.024;2022-10-22T09:48:29;9.68;;;8.35;;
71959;SDS011;59832;51.146;14.024;2022-10-22T09:51:04;9.15;;;8.00;;
71959;SDS011;59832;51.146;14.024;2022-10-22T09:53:58;11.85;;;9.05;;
71959;SDS011;59832;51.146;14.024;2022-10-22T09:56:38;12.90;;;8.50;;
71959;SDS011;59832;51.146;14.024;2022-10-22T09:59:13;11.98;;;8.68;;
71959;SDS011;59832;51.146;14.024;2022-10-22T10:01:41;12.95;;;8.75;;
71959;SDS011;59832;51.146;14.024;2022-10-22T10:04:09;10.35;;;8.02;;
71959;SDS011;59832;51.146;14.024;2022-10-22T10:06:40;9.60;;;8.27;;
71959;SDS011;59832;51.146;14.024;2022-10-22T10:09:18;10.90;;;7.93;;
71959;SDS011;59832;51.146;14.024;2022-10-22T10:14:47;9.45;;;7.30;;
71959;SDS011;59832;51.146;14.024;2022-10-22T10:20:16;9.52;;;8.48;;
71959;SDS011;59832;51.146;14.024;2022-10-22T10:25:47;9.32;;;5.50;;
71959;SDS011;59832;51.146;14.024;2022-10-22T10:45:09;3.13;;;2.88;;
71959;SDS011;59832;51.146;14.024;2022-10-22T10:50:25;3.33;;;2.50;;
71959;SDS011;59832;51.146;14.024;2022-10-22T10:53:24;2.03;;;1.40;;
71959;SDS011;59832;51.146;14.024;2022-10-22T10:56:00;2.38;;;1.58;;
71959;SDS011;59832;51.146;14.024;2022-10-22T10:58:33;1.95;;;1.60;;
71959;SDS011;59832;51.146;14.024;2022-10-22T11:01:26;2.08;;;1.90;;
71959;SDS011;59832;51.146;14.024;2022-10-22T11:04:12;2.30;;;1.58;;
71959;SDS011;59832;51.146;14.024;2022-10-22T11:06:51;2.13;;;1.83;;
71959;SDS011;59832;51.146;14.024;2022-10-22T11:09:47;3.95;;;1.80;;
71959;SDS011;59832;51.146;14.024;2022-10-22T11:12:26;1.85;;;1.65;;
71959;SDS011;59832;51.146;14.024;2022-10-22T11:17:35;1.58;;;1.40;;
71959;SDS011;59832;51.146;14.024;2022-10-22T11:22:45;1.20;;;1.10;;
71959;SDS011;59832;51.146;14.024;2022-10-22T11:25:45;2.95;;;1.55;;
71959;SDS011;59832;51.146;14.024;2022-10-22T11:31:18;1.42;;;0.85;;
71959;SDS011;59832;51.146;14.024;2022-10-22T11:36:58;0.40;;;0.40;;
71959;SDS011;59832;51.146;14.024;2022-10-22T11:45:04;0.43;;;0.30;;
71959;SDS011;59832;51.146;14.024;2022-10-22T11:47:33;2.40;;;0.57;;
71959;SDS011;59832;51.146;14.024;2022-10-22T11:50:20;0.63;;;0.50;;
71959;SDS011;59832;51.146;14.024;2022-10-22T11:53:04;1.52;;;0.68;;
71959;SDS011;59832;51.146;14.024;2022-10-22T11:55:41;0.85;;;0.68;;
71959;SDS011;59832;51.146;14.024;2022-10-22T12:04:15;1.13;;;1.02;;
71959;SDS011;59832;51.146;14.024;2022-10-22T12:06:55;1.45;;;1.10;;
71959;SDS011;59832;51.146;14.024;2022-10-22T12:12:13;2.08;;;1.58;;
71959;SDS011;59832;51.146;14.024;2022-10-22T12:14:56;3.63;;;1.75;;
71959;SDS011;59832;51.146;14.024;2022-10-22T12:17:29;2.03;;;1.50;;
71959;SDS011;59832;51.146;14.024;2022-10-22T12:20:12;1.67;;;1.50;;
71959;SDS011;59832;51.146;14.024;2022-10-22T12:22:39;3.60;;;1.65;;
71959;SDS011;59832;51.146;14.024;2022-10-22T12:27:51;1.50;;;1.40;;
71959;SDS011;59832;51.146;14.024;2022-10-22T12:30:21;2.80;;;1.60;;
71959;SDS011;59832;51.146;14.024;2022-10-22T12:32:56;1.90;;;1.67;;
71959;SDS011;59832;51.146;14.024;2022-10-22T12:35:26;2.13;;;1.90;;
71959;SDS011;59832;51.146;14.024;2022-10-22T12:37:57;1.80;;;1.70;;
71959;SDS011;59832;51.146;14.024;2022-10-22T12:40:27;1.88;;;1.70;;
71959;SDS011;59832;51.146;14.024;2022-10-22T12:42:56;3.03;;;2.05;;
71959;SDS011;59832;51.146;14.024;2022-10-22T12:45:28;3.72;;;2.10;;
71959;SDS011;59832;51.146;14.024;2022-10-22T12:47:57;3.05;;;2.10;;
71959;SDS011;59832;51.146;14.024;2022-10-22T12:50:34;2.25;;;2.10;;
71959;SDS011;59832;51.146;14.024;2022-10-22T12:53:05;3.15;;;2.85;;
71959;SDS011;59832;51.146;14.024;2022-10-22T12:55:59;2.90;;;2.60;;
71959;SDS011;59832;51.146;14.024;2022-10-22T12:58:37;3.65;;;2.58;;
71959;SDS011;59832;51.146;14.024;2022-10-22T13:01:10;3.28;;;2.63;;
71959;SDS011;59832;51.146;14.024;2022-10-22T13:03:42;2.60;;;2.40;;
71959;SDS011;59832;51.146;14.024;2022-10-22T13:11:47;2.58;;;2.22;;
71959;SDS011;59832;51.146;14.024;2022-10-22T13:14:18;2.33;;;2.13;;
71959;SDS011;59832;51.146;14.024;2022-10-22T13:22:02;2.67;;;2.45;;
71959;SDS011;59832;51.146;14.024;2022-10-22T13:24:28;3.00;;;2.80;;
71959;SDS011;59832;51.146;14.024;2022-10-22T13:26:56;3.40;;;2.40;;
71959;SDS011;59832;51.146;14.024;2022-10-22T13:29:22;4.10;;;2.20;;
71959;SDS011;59832;51.146;14.024;2022-10-22T13:31:50;2.40;;;2.20;;
71959;SDS011;59832;51.146;14.024;2022-10-22T13:34:19;4.22;;;2.20;;
71959;SDS011;59832;51.146;14.024;2022-10-22T13:36:48;2.30;;;2.08;;
71959;SDS011;59832;51.146;14.024;2022-10-22T13:39:20;3.13;;;1.95;;
71959;SDS011;59832;51.146;14.024;2022-10-22T13:41:48;2.65;;;2.10;;
71959;SDS011;59832;51.146;14.024;2022-10-22T13:44:16;2.70;;;2.40;;
71959;SDS011;59832;51.146;14.024;2022-10-22T13:46:44;2.60;;;1.90;;
71959;SDS011;59832;51.146;14.024;2022-10-22T13:49:18;1.65;;;1.55;;
71959;SDS011;59832;51.146;14.024;2022-10-22T13:51:48;3.70;;;1.60;;
71959;SDS011;59832;51.146;14.024;2022-10-22T13:54:20;1.88;;;1.65;;
71959;SDS011;59832;51.146;14.024;2022-10-22T13:56:48;2.00;;;1.80;;
71959;SDS011;59832;51.146;14.024;2022-10-22T13:59:15;1.60;;;1.50;;
71959;SDS011;59832;51.146;14.024;2022-10-22T14:01:48;1.88;;;1.67;;
71959;SDS011;59832;51.146;14.024;2022-10-22T14:04:14;2.47;;;1.60;;
71959;SDS011;59832;51.146;14.024;2022-10-22T14:06:41;1.55;;;1.30;;
71959;SDS011;59832;51.146;14.024;2022-10-22T14:09:10;2.28;;;1.38;;
71959;SDS011;59832;51.146;14.024;2022-10-22T14:11:41;1.80;;;1.20;;
71959;SDS011;59832;51.146;14.024;2022-10-22T14:14:08;1.10;;;0.90;;
71959;SDS011;59832;51.146;14.024;2022-10-22T14:16:39;0.93;;;0.88;;
71959;SDS011;59832;51.146;14.024;2022-10-22T14:19:05;1.00;;;0.90;;
71959;SDS011;59832;51.146;14.024;2022-10-22T14:21:34;1.00;;;0.90;;
71959;SDS011;59832;51.146;14.024;2022-10-22T14:24:02;1.00;;;0.60;;
71959;SDS011;59832;51.146;14.024;2022-10-22T14:26:33;0.70;;;0.63;;
71959;SDS011;59832;51.146;14.024;2022-10-22T14:29:00;0.85;;;0.50;;
71959;SDS011;59832;51.146;14.024;2022-10-22T14:31:39;0.77;;;0.75;;
71959;SDS011;59832;51.146;14.024;2022-10-22T14:34:09;0.60;;;0.60;;
71959;SDS011;59832;51.146;14.024;2022-10-22T14:39:03;0.60;;;0.60;;
71959;SDS011;59832;51.146;14.024;2022-10-22T14:41:32;0.63;;;0.63;;
71959;SDS011;59832;51.146;14.024;2022-10-22T14:43:58;0.73;;;0.57;;
71959;SDS011;59832;51.146;14.024;2022-10-22T14:46:25;1.10;;;0.65;;
71959;SDS011;59832;51.146;14.024;2022-10-22T14:48:52;0.85;;;0.80;;
71959;SDS011;59832;51.146;14.024;2022-10-22T14:51:19;1.30;;;0.90;;
71959;SDS011;59832;51.146;14.024;2022-10-22T14:53:46;0.73;;;0.63;;
71959;SDS011;59832;51.146;14.024;2022-10-22T14:56:15;1.15;;;0.68;;
71959;SDS011;59832;51.146;14.024;2022-10-22T14:58:43;0.90;;;0.85;;
71959;SDS011;59832;51.146;14.024;2022-10-22T15:01:10;0.60;;;0.60;;
71959;SDS011;59832;51.146;14.024;2022-10-22T15:03:37;1.85;;;0.75;;
71959;SDS011;59832;51.146;14.024;2022-10-22T15:06:04;0.57;;;0.57;;
71959;SDS011;59832;51.146;14.024;2022-10-22T15:11:05;0.60;;;0.60;;
71959;SDS011;59832;51.146;14.024;2022-10-22T15:13:33;1.25;;;0.70;;
71959;SDS011;59832;51.146;14.024;2022-10-22T15:16:00;0.60;;;0.60;;
71959;SDS011;59832;51.146;14.024;2022-10-22T15:18:27;0.73;;;0.73;;
71959;SDS011;59832;51.146;14.024;2022-10-22T15:21:00;1.05;;;0.77;;
71959;SDS011;59832;51.146;14.024;2022-10-22T15:23:29;2.55;;;0.77;;
71959;SDS011;59832;51.146;14.024;2022-10-22T15:25:56;0.95;;;0.70;;
71959;SDS011;59832;51.146;14.024;2022-10-22T15:28:23;1.67;;;0.80;;
71959;SDS011;59832;51.146;14.024;2022-10-22T15:30:51;0.80;;;0.70;;
71959;SDS011;59832;51.146;14.024;2022-10-22T15:33:22;1.33;;;0.90;;
71959;SDS011;59832;51.146;14.024;2022-10-22T15:35:49;0.80;;;0.80;;
71959;SDS011;59832;51.146;14.024;2022-10-22T15:38:15;0.75;;;0.70;;
71959;SDS011;59832;51.146;14.024;2022-10-22T15:40:42;1.27;;;1.15;;
71959;SDS011;59832;51.146;14.024;2022-10-22T15:43:10;2.65;;;1.20;;
71959;SDS011;59832;51.146;14.024;2022-10-22T15:45:37;3.60;;;1.50;;
71959;SDS011;59832;51.146;14.024;2022-10-22T15:48:04;1.40;;;1.30;;
71959;SDS011;59832;51.146;14.024;2022-10-22T15:50:30;1.38;;;1.27;;
71959;SDS011;59832;51.146;14.024;2022-10-22T15:52:57;1.65;;;1.50;;
71959;SDS011;59832;51.146;14.024;2022-10-22T15:55:23;2.10;;;1.70;;
71959;SDS011;59832;51.146;14.024;2022-10-22T15:57:52;2.53;;;2.27;;
71959;SDS011;59832;51.146;14.024;2022-10-22T16:00:23;3.47;;;2.72;;
71959;SDS011;59832;51.146;14.024;2022-10-22T16:02:50;3.00;;;2.70;;
71959;SDS011;59832;51.146;14.024;2022-10-22T16:05:18;2.80;;;2.60;;
71959;SDS011;59832;51.146;14.024;2022-10-22T16:07:45;2.90;;;2.70;;
71959;SDS011;59832;51.146;14.024;2022-10-22T16:10:14;3.88;;;2.88;;
71959;SDS011;59832;51.146;14.024;2022-10-22T16:12:41;3.17;;;2.85;;
71959;SDS011;59832;51.146;14.024;2022-10-22T16:15:09;3.70;;;3.40;;
71959;SDS011;59832;51.146;14.024;2022-10-22T16:17:35;6.88;;;5.25;;
71959;SDS011;59832;51.146;14.024;2022-10-22T16:20:02;5.80;;;5.28;;
71959;SDS011;59832;51.146;14.024;2022-10-22T16:22:29;5.88;;;5.38;;
71959;SDS011;59832;51.146;14.024;2022-10-22T16:24:55;6.97;;;5.73;;
71959;SDS011;59832;51.146;14.024;2022-10-22T16:27:22;7.50;;;5.63;;
71959;SDS011;59832;51.146;14.024;2022-10-22T16:29:48;5.53;;;4.97;;